San Rafael, CA (94901)

6:38 AM PST on December 19, 2014 (GMT -0800)
Lincoln Hill | Change Station
CLOSE
Current Station
Personal Weather Station
Location: San Rafael, CA
Elevation: 210 ft
Nearby Weather Stations

Elev 210 ft 37.98 °N, 122.52 °W | Updated 6 seconds ago

Overcast
Overcast
55.0 °F
Feels Like 55.0 °F
N
0.7
Wind Variable Wind from East
Gusts 0.7 mph

Today
High -- | Low -- °F
--% Chance of Precip.
Yesterday
High -- | Low -- °F
Precip. -- in
7:21 AM 4:53 PM
Waning Crescent, 7% visible
Pressure 30.06 in
Visibility 10.0 miles
Clouds Overcast 1800 ft
Dew Point 51 °F
Humidity 87%
Rainfall 0.75 in
Snow Depth Not available.
UV 0 out of 12
Pollen 2.00 out of 12
Air Quality Not available.
Flu Activity Not available.
METAR KAPC 191354Z AUTO 13011KT 10SM OVC018 12/11 A3009 RMK AO2 SLP179 T01220111 TSNO

More Conditions Fewer Conditions

Pressure 30.06 in
Visibility 10.0 miles
Clouds Overcast 1800 ft
Dew Point 51 °F
Humidity 87%
Rainfall 0.75 in
Snow Depth Not available.
UV 0 out of 12
Pollen 2.00 out of 12
Air Quality Not available.
Flu Activity Not available.
METAR KAPC 191354Z AUTO 13011KT 10SM OVC018 12/11 A3009 RMK AO2 SLP179 T01220111 TSNO

More Conditions Fewer Conditions

10-Day Weather Forecast

Almanac

Astronomy

Dec. 19, 2014 Rise Set
Actual Time
Civil Twilight
Nautical Twilight
Astronomical Twilight
Moon
Length of Visible Light
Length of Day
Tomorrow will be .
, % of the Moon is Illuminated

Today's Extremes

State Highs State Lows

Community

WunderPhotos

Upload Photos

1,778,988 photos uploaded!

WunderBlogs® & News

Nearby

Air Quality

  Air Quality AQ Index Pollutant
Not available.

Snow Depth

Station Depth Elevation

Earthquake Activity

City Distance Mag. Time & Date
Minimum magnitude displayed is 2.5.

Coastal Water Temperatures

Place Temperature

Nearby Weather Stations